createdAt,value
2019-05-13T00:01:07.076Z,2.15
2019-05-13T00:03:36.153Z,2.00
2019-05-13T00:06:05.927Z,1.91
2019-05-13T00:08:35.280Z,1.87
2019-05-13T00:11:04.708Z,2.02
2019-05-13T00:13:34.383Z,2.15
2019-05-13T00:16:07.949Z,2.25
2019-05-13T00:18:37.374Z,2.33
2019-05-13T00:21:06.759Z,2.32
2019-05-13T00:23:36.109Z,2.15
2019-05-13T00:26:05.479Z,2.00
2019-05-13T00:28:37.248Z,1.89
2019-05-13T00:31:06.642Z,1.73
2019-05-13T00:33:36.034Z,1.64
2019-05-13T00:36:05.558Z,1.54
2019-05-13T00:38:34.999Z,1.46
2019-05-13T00:41:04.334Z,1.39
2019-05-13T00:43:34.122Z,1.32
2019-05-13T00:46:04.049Z,1.24
2019-05-13T00:48:33.755Z,1.27
2019-05-13T00:51:03.937Z,1.33
2019-05-13T00:53:35.392Z,1.34
2019-05-13T00:56:05.841Z,1.34
2019-05-13T00:58:35.361Z,1.32
2019-05-13T01:01:04.745Z,1.25
2019-05-13T01:03:34.097Z,1.21
2019-05-13T01:06:04.258Z,1.20
2019-05-13T01:08:34.416Z,1.12
2019-05-13T01:11:04.362Z,1.03
2019-05-13T01:13:34.334Z,0.97
2019-05-13T01:16:04.254Z,0.92
2019-05-13T01:18:34.174Z,0.85
2019-05-13T01:21:04.455Z,0.76
2019-05-13T01:23:35.026Z,0.68
2019-05-13T01:26:04.364Z,0.61
2019-05-13T01:28:34.441Z,0.56
2019-05-13T01:31:04.379Z,0.50
2019-05-13T01:33:35.084Z,0.47
2019-05-13T01:36:05.484Z,0.42
2019-05-13T01:38:34.871Z,0.40
2019-05-13T01:41:04.661Z,0.38
2019-05-13T01:43:34.067Z,0.36
2019-05-13T01:46:04.410Z,0.33
2019-05-13T01:48:34.211Z,0.31
2019-05-13T01:51:04.139Z,0.32
2019-05-13T01:53:33.813Z,0.32
2019-05-13T01:56:04.057Z,0.28
2019-05-13T01:58:34.132Z,0.23
2019-05-13T02:01:04.977Z,0.21
2019-05-13T02:03:34.668Z,0.19
2019-05-13T02:06:04.048Z,0.20
2019-05-13T02:08:33.820Z,0.15
2019-05-13T02:11:04.453Z,0.12
2019-05-13T02:13:34.548Z,0.10
2019-05-13T02:16:04.451Z,0.13
2019-05-13T02:18:34.385Z,0.39
2019-05-13T02:21:05.559Z,0.81
2019-05-13T02:23:35.151Z,1.25
2019-05-13T02:26:07.637Z,1.55
2019-05-13T02:28:36.984Z,1.73
2019-05-13T02:31:06.411Z,1.89
2019-05-13T02:33:35.895Z,1.97
2019-05-13T02:36:05.284Z,2.07
2019-05-13T02:38:35.905Z,2.15
2019-05-13T02:41:05.459Z,2.16
2019-05-13T02:43:34.939Z,2.18
2019-05-13T02:46:04.716Z,2.13
2019-05-13T02:48:37.393Z,1.99
2019-05-13T02:51:06.836Z,1.77
2019-05-13T02:53:36.285Z,1.58
2019-05-13T02:56:05.903Z,1.60
2019-05-13T02:58:35.338Z,1.71
2019-05-13T03:01:04.813Z,1.84
2019-05-13T03:03:34.230Z,1.98
2019-05-13T03:06:03.690Z,2.09
2019-05-13T03:08:41.030Z,2.17
2019-05-13T03:11:04.179Z,2.17
2019-05-13T03:13:33.675Z,2.18
2019-05-13T03:16:15.073Z,2.06
2019-05-13T03:18:44.407Z,1.79
2019-05-13T03:21:13.789Z,1.48
2019-05-13T03:23:44.689Z,1.21
2019-05-13T03:26:14.253Z,1.09
2019-05-13T03:28:44.205Z,1.08
2019-05-13T03:31:17.012Z,1.21
2019-05-13T03:33:47.032Z,1.24
2019-05-13T03:36:17.893Z,1.18
2019-05-13T03:39:01.503Z,1.15
2019-05-13T03:41:22.593Z,1.31
2019-05-13T03:43:53.260Z,1.48
2019-05-13T03:46:24.145Z,1.69
2019-05-13T03:48:56.819Z,1.82
2019-05-13T03:51:26.788Z,1.92
2019-05-13T03:53:56.198Z,1.97
2019-05-13T03:56:25.960Z,1.94
2019-05-13T03:58:55.477Z,2.02
2019-05-13T04:01:25.330Z,2.10
2019-05-13T04:03:54.819Z,2.20
2019-05-13T04:06:24.330Z,2.30
2019-05-13T04:08:54.236Z,2.39
2019-05-13T04:11:24.232Z,2.49
2019-05-13T04:13:53.857Z,2.58
2019-05-13T04:16:24.014Z,2.65
2019-05-13T04:18:55.535Z,2.72
2019-05-13T04:21:24.922Z,2.80
2019-05-13T04:23:54.380Z,2.90
2019-05-13T04:26:24.130Z,2.98
2019-05-13T04:28:53.805Z,3.02
2019-05-13T04:31:23.407Z,3.13
2019-05-13T04:33:53.603Z,3.24
2019-05-13T04:36:23.871Z,3.34
2019-05-13T04:38:53.623Z,3.37
2019-05-13T04:41:23.541Z,3.45
2019-05-13T04:43:54.174Z,3.48
2019-05-13T04:46:24.320Z,3.50
2019-05-13T04:48:53.703Z,3.54
2019-05-13T04:51:23.500Z,3.58
2019-05-13T04:53:56.924Z,3.67
2019-05-13T04:56:24.277Z,3.78
2019-05-13T04:58:53.746Z,3.89
2019-05-13T05:02:05.003Z,3.99
2019-05-13T05:04:52.454Z,4.04
2019-05-13T05:07:32.775Z,4.09
2019-05-13T05:10:30.248Z,4.14
2019-05-13T05:13:26.738Z,4.24
2019-05-13T05:16:27.086Z,4.38
2019-05-13T05:19:32.762Z,4.56
2019-05-13T05:22:27.524Z,4.71
2019-05-13T05:25:29.259Z,4.88
2019-05-13T05:28:12.612Z,5.05
2019-05-13T05:31:02.347Z,5.17
2019-05-13T05:34:21.972Z,5.33
2019-05-13T05:37:16.814Z,5.44
2019-05-13T05:39:48.032Z,5.65
2019-05-13T05:42:18.807Z,5.66
2019-05-13T05:44:48.430Z,5.85
2019-05-13T05:47:18.299Z,6.15
2019-05-13T05:49:48.952Z,6.47
2019-05-13T05:52:21.087Z,6.67
2019-05-13T05:54:51.768Z,6.78
2019-05-13T05:57:22.548Z,6.90
2019-05-13T05:59:52.938Z,7.11
2019-05-13T06:02:25.681Z,7.36
2019-05-13T06:04:56.023Z,7.63
2019-05-13T06:07:26.437Z,7.88
2019-05-13T06:09:55.916Z,8.18
2019-05-13T06:12:25.869Z,8.39
2019-05-13T06:14:55.580Z,8.58
2019-05-13T06:17:24.986Z,8.76
2019-05-13T06:19:54.431Z,8.93
2019-05-13T06:22:23.868Z,9.12
2019-05-13T06:24:53.537Z,9.15
2019-05-13T06:27:23.252Z,9.23
2019-05-13T06:29:53.097Z,9.30
2019-05-13T06:32:26.216Z,9.38
2019-05-13T06:34:53.842Z,9.47
2019-05-13T06:37:23.329Z,9.56
2019-05-13T06:39:52.798Z,9.51
2019-05-13T06:42:22.415Z,9.64
2019-05-13T06:44:51.769Z,9.74
2019-05-13T06:47:22.088Z,9.80
2019-05-13T06:49:51.783Z,9.90
2019-05-13T06:52:21.395Z,9.95
2019-05-13T06:54:52.010Z,10.03
2019-05-13T06:57:22.116Z,10.06
2019-05-13T06:59:52.549Z,10.25
2019-05-13T07:02:22.433Z,10.44
2019-05-13T07:04:51.910Z,10.48
2019-05-13T07:07:22.048Z,10.53
2019-05-13T07:09:51.967Z,10.55
2019-05-13T07:12:22.048Z,10.51
2019-05-13T07:14:52.043Z,10.42
2019-05-13T07:17:22.288Z,10.43
2019-05-13T07:19:52.120Z,10.50
2019-05-13T07:22:23.028Z,10.62
2019-05-13T07:24:52.746Z,10.56
2019-05-13T07:27:22.921Z,10.45
2019-05-13T07:29:55.536Z,10.40
2019-05-13T07:32:23.825Z,10.46
2019-05-13T07:34:53.556Z,10.45
2019-05-13T07:37:23.639Z,10.35
2019-05-13T07:39:53.331Z,10.31
2019-05-13T07:42:22.948Z,10.30
2019-05-13T07:44:52.528Z,10.27
2019-05-13T07:47:23.354Z,10.20
2019-05-13T07:49:52.943Z,10.25
2019-05-13T07:52:22.914Z,10.18
2019-05-13T07:54:52.464Z,10.13
2019-05-13T07:57:21.918Z,10.03
2019-05-13T07:59:52.392Z,10.06
2019-05-13T08:02:22.060Z,10.00
2019-05-13T08:04:53.036Z,9.85
2019-05-13T08:07:22.874Z,9.79
2019-05-13T08:09:56.025Z,9.83
2019-05-13T08:12:23.470Z,9.85
2019-05-13T08:14:54.075Z,9.78
2019-05-13T08:17:23.465Z,9.86
2019-05-13T08:19:52.908Z,10.14
2019-05-13T08:22:22.486Z,10.27
2019-05-13T08:24:54.258Z,10.36
2019-05-13T08:27:30.202Z,10.30
2019-05-13T08:29:54.267Z,10.37
2019-05-13T08:32:23.815Z,10.47
2019-05-13T08:35:01.446Z,10.47
2019-05-13T08:37:24.539Z,10.46
2019-05-13T08:39:53.912Z,10.47
2019-05-13T08:42:23.839Z,10.61
2019-05-13T08:44:53.589Z,10.87
2019-05-13T08:47:23.128Z,10.94
2019-05-13T08:49:52.498Z,11.01
2019-05-13T08:52:22.099Z,11.14
2019-05-13T08:54:52.396Z,11.16
2019-05-13T08:57:22.347Z,11.26
2019-05-13T08:59:51.875Z,11.36
2019-05-13T09:02:22.134Z,11.37
2019-05-13T09:04:52.023Z,11.43
2019-05-13T09:07:24.330Z,11.38
2019-05-13T09:09:53.205Z,11.43
2019-05-13T09:12:32.086Z,11.47
2019-05-13T09:14:53.931Z,11.62
2019-05-13T09:17:23.410Z,11.73
2019-05-13T09:19:52.787Z,11.81
2019-05-13T09:22:22.319Z,11.95
2019-05-13T09:24:53.061Z,12.03
2019-05-13T09:27:22.794Z,12.02
2019-05-13T09:29:52.184Z,12.14
2019-05-13T09:32:21.780Z,12.30
2019-05-13T09:34:52.424Z,12.36
2019-05-13T09:37:22.715Z,12.18
2019-05-13T09:39:52.225Z,12.07
2019-05-13T09:42:21.834Z,12.18
2019-05-13T09:44:52.474Z,12.21
2019-05-13T09:47:22.366Z,12.18
2019-05-13T09:49:54.376Z,12.26
2019-05-13T09:52:22.860Z,12.41
2019-05-13T09:54:52.531Z,12.64
2019-05-13T09:57:22.222Z,12.78
2019-05-13T09:59:52.414Z,12.86
2019-05-13T10:02:21.981Z,13.00
2019-05-13T10:04:51.683Z,13.24
2019-05-13T10:07:22.970Z,13.29
2019-05-13T10:09:52.361Z,13.18
2019-05-13T10:12:24.298Z,13.28
2019-05-13T10:14:53.062Z,13.34
2019-05-13T10:17:22.503Z,13.41
2019-05-13T10:19:52.293Z,13.53
2019-05-13T10:22:21.959Z,13.58
2019-05-13T10:24:51.725Z,13.76
2019-05-13T10:27:22.348Z,13.94
2019-05-13T10:29:52.280Z,13.88
2019-05-13T10:32:22.163Z,13.85
2019-05-13T10:34:53.791Z,13.87
2019-05-13T10:37:24.189Z,13.92
2019-05-13T10:39:53.686Z,14.07
2019-05-13T10:42:23.279Z,14.21
2019-05-13T10:44:52.981Z,14.41
2019-05-13T10:47:22.950Z,14.61
2019-05-13T10:49:52.722Z,14.57
2019-05-13T10:52:23.072Z,14.77
2019-05-13T10:54:52.855Z,14.81
2019-05-13T10:57:22.634Z,14.87
2019-05-13T10:59:52.923Z,14.81
2019-05-13T11:02:22.445Z,14.76
2019-05-13T11:04:52.726Z,14.58
2019-05-13T11:07:22.644Z,14.96
2019-05-13T11:09:52.874Z,15.24
2019-05-13T11:12:28.090Z,15.43
2019-05-13T11:14:55.339Z,15.46
2019-05-13T11:17:31.158Z,15.62
2019-05-13T11:19:56.031Z,15.66
2019-05-13T11:22:25.603Z,15.42
2019-05-13T11:24:55.010Z,15.28
2019-05-13T11:27:24.537Z,15.61
2019-05-13T11:29:54.115Z,15.56
2019-05-13T11:32:23.636Z,15.74
2019-05-13T11:34:53.352Z,15.82
2019-05-13T11:37:23.373Z,15.98
2019-05-13T11:39:52.878Z,16.18
2019-05-13T11:42:22.914Z,16.57
2019-05-13T11:44:53.160Z,16.91
2019-05-13T11:47:22.879Z,17.06
2019-05-13T11:49:52.554Z,17.11
2019-05-13T11:52:22.746Z,17.21
2019-05-13T11:54:53.762Z,16.98
2019-05-13T11:57:23.699Z,16.99
2019-05-13T11:59:53.487Z,17.35
2019-05-13T12:02:23.320Z,17.58
2019-05-13T12:04:53.756Z,17.77
2019-05-13T12:07:23.726Z,17.93
2019-05-13T12:09:53.255Z,17.86
2019-05-13T12:12:30.154Z,17.90
2019-05-13T12:15:20.276Z,18.33
2019-05-13T12:17:25.278Z,19.45
2019-05-13T12:19:54.860Z,21.53
2019-05-13T12:22:24.360Z,23.01
2019-05-13T12:24:53.903Z,24.13
2019-05-13T12:27:23.663Z,23.92
2019-05-13T12:29:53.304Z,24.70
2019-05-13T12:32:22.803Z,24.62
2019-05-13T12:34:52.874Z,26.01
2019-05-13T12:37:22.401Z,26.68
2019-05-13T12:39:53.074Z,27.30
2019-05-13T12:42:23.223Z,27.62
2019-05-13T12:45:09.036Z,27.66
2019-05-13T12:47:23.846Z,28.27
2019-05-13T12:49:53.370Z,28.36
2019-05-13T12:52:23.237Z,28.94
2019-05-13T12:54:53.224Z,29.02
2019-05-13T12:57:23.326Z,29.27
2019-05-13T12:59:53.029Z,28.05
2019-05-13T13:02:22.799Z,28.03
2019-05-13T13:05:12.096Z,28.84
2019-05-13T13:07:23.436Z,28.43
2019-05-13T13:09:53.924Z,29.48
2019-05-13T13:12:33.873Z,30.12
2019-05-13T13:14:55.083Z,30.30
2019-05-13T13:17:24.529Z,30.81
2019-05-13T13:20:03.148Z,30.02
2019-05-13T13:22:25.700Z,29.87
2019-05-13T13:24:57.501Z,30.29
2019-05-13T13:27:57.746Z,30.36
2019-05-13T13:30:03.412Z,30.67
2019-05-13T13:32:32.202Z,30.96
2019-05-13T13:35:03.428Z,30.91
2019-05-13T13:37:34.816Z,31.18
2019-05-13T13:40:03.386Z,31.15
2019-05-13T13:42:33.447Z,31.06
2019-05-13T13:45:06.038Z,31.71
2019-05-13T13:47:34.273Z,31.86
2019-05-13T13:50:03.736Z,31.71
2019-05-13T13:52:33.723Z,30.87
2019-05-13T13:55:08.241Z,30.55
2019-05-13T13:57:34.433Z,31.19
2019-05-13T14:02:36.822Z,32.57
2019-05-13T14:05:06.925Z,32.53
2019-05-13T14:07:38.788Z,31.97
2019-05-13T14:10:08.441Z,31.12
2019-05-13T14:12:37.852Z,30.20
2019-05-13T14:15:07.276Z,29.53
2019-05-13T14:17:36.679Z,28.22
2019-05-13T14:20:06.628Z,29.19
2019-05-13T14:22:36.034Z,30.06
2019-05-13T14:25:05.787Z,30.95
2019-05-13T14:27:35.323Z,31.37
2019-05-13T14:30:04.996Z,32.20
2019-05-13T14:32:34.415Z,32.86
2019-05-13T14:35:03.899Z,33.35
2019-05-13T14:37:33.331Z,33.10
2019-05-13T14:40:02.866Z,33.53
2019-05-13T14:42:32.399Z,31.19
2019-05-13T14:45:02.226Z,29.31
2019-05-13T14:47:32.184Z,29.10
2019-05-13T14:50:02.278Z,28.89
2019-05-13T14:52:32.372Z,29.08
2019-05-13T14:55:02.314Z,30.43
2019-05-13T14:57:32.311Z,31.81
2019-05-13T15:00:02.520Z,32.21
2019-05-13T15:02:35.816Z,32.68
2019-05-13T15:05:03.421Z,32.25
2019-05-13T15:07:33.002Z,32.76
2019-05-13T15:10:02.647Z,32.35
2019-05-13T15:12:32.488Z,32.29
2019-05-13T15:15:02.111Z,31.23
2019-05-13T15:17:34.689Z,32.31
2019-05-13T15:20:03.145Z,33.07
2019-05-13T15:22:32.757Z,33.82
2019-05-13T15:25:02.878Z,33.31
2019-05-13T15:27:32.577Z,32.47
2019-05-13T15:30:16.819Z,31.96
2019-05-13T15:32:33.193Z,31.51
2019-05-13T15:35:02.558Z,30.96
2019-05-13T15:37:32.311Z,30.65
2019-05-13T15:40:02.434Z,30.03
2019-05-13T15:42:32.135Z,29.72
2019-05-13T15:45:02.148Z,28.85
2019-05-13T15:47:31.947Z,27.08
2019-05-13T15:50:02.433Z,26.87
2019-05-13T15:52:32.192Z,27.68
2019-05-13T15:55:01.636Z,29.10
2019-05-13T15:57:31.909Z,30.34
2019-05-13T16:00:02.078Z,30.98
2019-05-13T16:02:31.821Z,31.82
2019-05-13T16:05:04.720Z,32.01
2019-05-13T16:07:32.543Z,32.58
2019-05-13T16:10:04.238Z,32.47
2019-05-13T16:12:33.240Z,32.80
2019-05-13T16:15:02.694Z,33.38
2019-05-13T16:17:41.157Z,32.42
2019-05-13T16:20:03.806Z,32.33
2019-05-13T16:22:33.264Z,31.94
2019-05-13T16:25:02.725Z,31.61
2019-05-13T16:27:32.392Z,31.05
2019-05-13T16:30:02.556Z,30.27
2019-05-13T16:32:32.257Z,30.00
2019-05-13T16:35:02.719Z,29.64
2019-05-13T16:37:32.528Z,29.37
2019-05-13T16:40:01.941Z,28.99
2019-05-13T16:42:31.943Z,28.20
2019-05-13T16:45:01.630Z,27.53
2019-05-13T16:47:31.861Z,27.21
2019-05-13T16:50:02.770Z,26.75
2019-05-13T16:52:32.508Z,26.26
2019-05-13T16:55:02.696Z,25.27
2019-05-13T16:57:32.443Z,24.90
2019-05-13T17:00:02.420Z,24.21
2019-05-13T17:02:32.169Z,24.12
2019-05-13T17:05:01.607Z,24.09
2019-05-13T17:07:31.769Z,23.84
2019-05-13T17:10:03.753Z,23.36
2019-05-13T17:12:32.843Z,23.07
2019-05-13T17:15:02.403Z,22.88
2019-05-13T17:17:31.888Z,22.21
2019-05-13T17:20:02.459Z,22.17
2019-05-13T17:22:32.044Z,22.45
2019-05-13T17:25:02.497Z,22.75
2019-05-13T17:27:32.272Z,22.23
2019-05-13T17:30:02.224Z,21.60
2019-05-13T17:32:31.859Z,21.07
2019-05-13T17:35:02.192Z,20.73
2019-05-13T17:37:31.894Z,20.35
2019-05-13T17:40:01.576Z,19.95
2019-05-13T17:42:31.984Z,19.78
2019-05-13T17:45:02.366Z,19.62
2019-05-13T17:47:32.147Z,19.34
2019-05-13T17:50:01.631Z,18.81
2019-05-13T17:52:31.170Z,18.31
2019-05-13T17:55:01.119Z,17.84
2019-05-13T17:57:32.063Z,17.55
2019-05-13T18:00:01.959Z,17.34
2019-05-13T18:02:31.522Z,17.07
2019-05-13T18:05:02.120Z,17.01
2019-05-13T18:07:32.223Z,17.00
2019-05-13T18:10:01.966Z,17.29
2019-05-13T18:12:31.550Z,17.98
2019-05-13T18:15:02.433Z,17.21
2019-05-13T18:17:32.130Z,16.93
2019-05-13T18:20:02.533Z,16.66
2019-05-13T18:22:32.235Z,16.03
2019-05-13T18:25:02.552Z,15.54
2019-05-13T18:27:32.500Z,15.18
2019-05-13T18:30:02.295Z,14.78
2019-05-13T18:32:32.137Z,14.46
2019-05-13T18:35:01.951Z,13.88
2019-05-13T18:37:31.713Z,13.42
2019-05-13T18:40:02.501Z,13.20
2019-05-13T18:42:32.231Z,12.88
2019-05-13T18:45:02.291Z,12.66
2019-05-13T18:47:32.005Z,12.41
2019-05-13T18:50:02.324Z,12.19
2019-05-13T18:52:32.128Z,12.04
2019-05-13T18:55:02.196Z,11.92
2019-05-13T18:57:32.022Z,11.75
2019-05-13T19:00:02.200Z,11.48
2019-05-13T19:02:32.151Z,11.36
2019-05-13T19:05:01.858Z,11.11
2019-05-13T19:07:31.685Z,10.80
2019-05-13T19:10:02.487Z,10.43
2019-05-13T19:12:32.125Z,10.10
2019-05-13T19:15:02.402Z,9.95
2019-05-13T19:17:32.401Z,9.79
2019-05-13T19:20:01.983Z,9.67
2019-05-13T19:22:31.760Z,9.50
2019-05-13T19:25:01.393Z,9.26
2019-05-13T19:27:32.045Z,9.16
2019-05-13T19:30:01.902Z,9.14
2019-05-13T19:32:32.356Z,9.10
2019-05-13T19:35:02.674Z,8.96
2019-05-13T19:37:32.642Z,8.84
2019-05-13T19:40:02.175Z,8.83
2019-05-13T19:42:31.690Z,8.84
2019-05-13T19:45:01.922Z,8.71
2019-05-13T19:47:32.491Z,8.66
2019-05-13T19:50:02.492Z,8.55
2019-05-13T19:52:32.198Z,8.44
2019-05-13T19:55:01.931Z,8.44
2019-05-13T19:57:31.856Z,8.49
2019-05-13T20:00:01.571Z,8.41
2019-05-13T20:02:31.579Z,8.30
2019-05-13T20:05:01.370Z,8.24
2019-05-13T20:07:31.828Z,8.13
2019-05-13T20:10:02.761Z,8.00
2019-05-13T20:12:32.393Z,7.80
2019-05-13T20:15:02.149Z,7.65
2019-05-13T20:17:32.162Z,7.62
2019-05-13T20:20:02.197Z,7.67
2019-05-13T20:22:31.747Z,7.74
2019-05-13T20:25:01.522Z,7.83
2019-05-13T20:27:31.745Z,7.86
2019-05-13T20:30:01.808Z,7.77
2019-05-13T20:32:31.283Z,7.62
2019-05-13T20:35:02.157Z,7.54
2019-05-13T20:37:32.161Z,7.54
2019-05-13T20:40:02.438Z,7.60
2019-05-13T20:42:31.995Z,7.58
2019-05-13T20:45:02.491Z,7.49
2019-05-13T20:47:33.413Z,7.44
2019-05-13T20:50:04.485Z,7.37
2019-05-13T20:52:33.925Z,7.33
2019-05-13T20:55:03.426Z,7.12
2019-05-13T20:57:32.971Z,6.92
2019-05-13T21:00:02.595Z,6.82
2019-05-13T21:02:32.051Z,6.59
2019-05-13T21:05:01.783Z,6.44
2019-05-13T21:07:32.084Z,6.29
2019-05-13T21:10:01.606Z,6.09
2019-05-13T21:12:31.458Z,5.88
2019-05-13T21:15:01.708Z,5.70
2019-05-13T21:17:31.065Z,5.59
2019-05-13T21:20:16.013Z,5.75
2019-05-13T21:22:31.888Z,5.97
2019-05-13T21:25:02.163Z,6.02
2019-05-13T21:27:31.613Z,6.08
2019-05-13T21:30:02.545Z,6.18
2019-05-13T21:32:32.063Z,6.19
2019-05-13T21:35:01.864Z,6.12
2019-05-13T21:37:31.355Z,6.08
2019-05-13T21:40:00.892Z,6.18
2019-05-13T21:42:32.144Z,6.15
2019-05-13T21:45:01.855Z,6.04
2019-05-13T21:47:31.404Z,5.96
2019-05-13T21:50:01.070Z,5.97
2019-05-13T21:52:32.325Z,5.93
2019-05-13T21:55:02.048Z,5.91
2019-05-13T21:57:33.103Z,5.74
2019-05-13T22:00:02.688Z,5.59
2019-05-13T22:02:32.061Z,5.48
2019-05-13T22:05:01.625Z,5.44
2019-05-13T22:07:31.577Z,5.28
2019-05-13T22:10:01.969Z,5.15
2019-05-13T22:12:32.176Z,5.01
2019-05-13T22:15:01.585Z,4.83
2019-05-13T22:17:31.687Z,4.62
2019-05-13T22:20:01.875Z,4.44
2019-05-13T22:22:32.134Z,4.28
2019-05-13T22:25:02.034Z,4.13
2019-05-13T22:27:31.620Z,3.99
2019-05-13T22:30:01.377Z,3.87
2019-05-13T22:32:30.750Z,3.78
2019-05-13T22:35:01.915Z,3.70
2019-05-13T22:37:31.881Z,3.65
2019-05-13T22:40:01.547Z,3.63
2019-05-13T22:42:32.422Z,3.59
2019-05-13T22:45:02.901Z,3.55
2019-05-13T22:47:32.548Z,3.52
2019-05-13T22:50:02.365Z,3.47
2019-05-13T22:52:31.890Z,3.40
2019-05-13T22:55:02.500Z,3.38
2019-05-13T22:57:32.331Z,3.35
2019-05-13T23:00:02.231Z,3.29
2019-05-13T23:02:33.530Z,3.34
2019-05-13T23:05:03.110Z,3.43
2019-05-13T23:07:32.624Z,3.43
2019-05-13T23:10:05.884Z,3.49
2019-05-13T23:12:35.333Z,3.45
2019-05-13T23:15:05.889Z,3.39
2019-05-13T23:17:35.321Z,3.33
2019-05-13T23:20:04.752Z,3.26
2019-05-13T23:22:34.141Z,3.16
2019-05-13T23:25:03.705Z,3.08
2019-05-13T23:27:33.635Z,3.01
2019-05-13T23:30:03.092Z,2.97
2019-05-13T23:32:32.624Z,2.93
2019-05-13T23:35:02.181Z,2.88
2019-05-13T23:37:31.607Z,2.84
2019-05-13T23:40:01.442Z,2.79
2019-05-13T23:42:31.993Z,2.81
2019-05-13T23:45:01.605Z,2.81
2019-05-13T23:47:31.172Z,2.77
2019-05-13T23:50:01.996Z,2.73
2019-05-13T23:52:31.507Z,2.70
2019-05-13T23:55:02.515Z,2.67
2019-05-13T23:57:32.208Z,2.64
